Time;durP1;ratioP1;P1;durP2;ratioP2;P2;SDS_P1;SDS_P2;PMS_P1;PMS_P2;Temp;Humidity;BMP_temperature;BMP_pressure;BME280_temperature;BME280_humidity;BME280_pressure;Samples;Min_cycle;Max_cycle;Signal;HPM_P1;HPM_P2
2021/07/17 00:00:02;;;;;;;7.27;4.40;;;;;;;22.61;90.02;99625.81;6222418;28;20432;-74
2021/07/17 00:03:04;;;;;;;6.50;4.20;;;;;;;22.50;90.04;99624.41;6222435;28;20042;-73
2021/07/17 00:06:06;;;;;;;7.65;4.35;;;;;;;22.50;90.67;99615.63;6222301;28;20049;-74
2021/07/17 00:09:07;;;;;;;11.85;5.28;;;;;;;22.39;90.39;99624.88;6222222;28;20386;-75
2021/07/17 00:12:08;;;;;;;6.72;4.57;;;;;;;22.39;92.01;99640.81;6222242;28;20046;-74
2021/07/17 00:15:12;;;;;;;8.68;4.75;;;;;;;22.39;91.80;99646.13;6222241;28;20052;-74
2021/07/17 00:18:15;;;;;;;9.13;4.78;;;;;;;22.38;91.93;99649.78;6222132;28;20156;-74
2021/07/17 00:21:15;;;;;;;8.68;4.70;;;;;;;22.41;92.94;99636.16;6222149;28;20041;-74
2021/07/17 00:24:19;;;;;;;6.67;4.87;;;;;;;22.42;92.55;99645.75;6220751;28;20092;-74
2021/07/17 00:27:20;;;;;;;6.80;4.97;;;;;;;22.52;91.47;99635.69;6221866;28;20508;-74
2021/07/17 00:30:21;;;;;;;8.33;4.90;;;;;;;22.50;91.98;99642.19;6221943;28;20050;-74
2021/07/17 00:33:21;;;;;;;8.13;5.43;;;;;;;22.51;91.29;99642.03;6221867;28;20084;-74
2021/07/17 00:36:22;;;;;;;8.17;5.50;;;;;;;22.45;91.30;99640.09;6220691;28;20041;-74
2021/07/17 00:39:23;;;;;;;6.90;5.10;;;;;;;22.48;91.91;99638.91;6220532;28;20038;-74
2021/07/17 00:42:24;;;;;;;7.43;4.87;;;;;;;22.54;92.24;99638.16;6220646;28;20042;-74
2021/07/17 00:45:24;;;;;;;9.27;5.50;;;;;;;22.51;92.20;99650.00;6221712;28;20045;-74
2021/07/17 00:48:25;;;;;;;7.43;4.67;;;;;;;22.56;91.49;99640.66;6220584;28;20116;-74
2021/07/17 00:51:26;;;;;;;6.97;5.23;;;;;;;22.45;91.88;99648.06;6220533;28;20041;-73
2021/07/17 00:54:28;;;;;;;9.40;5.50;;;;;;;22.35;92.34;99652.81;6220544;28;20480;-74
2021/07/17 00:57:31;;;;;;;;;;;;;;;22.38;92.73;99635.66;6221112;28;20042;-75
2021/07/17 01:00:32;;;;;;;7.63;5.22;;;;;;;22.30;93.81;99636.59;6221586;28;19921;-75
2021/07/17 01:03:33;;;;;;;17.00;5.38;;;;;;;22.32;94.48;99629.22;6222911;28;20042;-75
2021/07/17 01:06:34;;;;;;;7.50;4.57;;;;;;;22.37;93.83;99629.53;6225090;28;20392;-75
2021/07/17 01:09:35;;;;;;;9.73;5.20;;;;;;;22.29;93.98;99637.59;6225179;28;20077;-74
2021/07/17 01:12:36;;;;;;;7.87;5.37;;;;;;;22.31;94.12;99643.53;6226274;28;20440;-74
2021/07/17 01:15:37;;;;;;;7.72;5.25;;;;;;;22.23;94.31;99632.94;6225029;28;20061;-75
2021/07/17 01:18:39;;;;;;;7.80;5.23;;;;;;;22.23;93.11;99638.28;6225002;28;20124;-74
2021/07/17 01:21:40;;;;;;;9.50;5.93;;;;;;;22.24;93.66;99629.34;6224997;28;20061;-74
2021/07/17 01:24:43;;;;;;;8.20;5.20;;;;;;;22.27;93.68;99621.81;6225976;28;20497;-74
2021/07/17 01:27:44;;;;;;;6.55;5.15;;;;;;;22.25;93.16;99613.19;6224786;28;20126;-74
2021/07/17 01:30:45;;;;;;;10.25;5.32;;;;;;;22.31;93.07;99606.34;6224693;28;20046;-74
2021/07/17 01:33:46;;;;;;;5.80;4.93;;;;;;;22.31;93.40;99606.34;6225772;28;20461;-74
2021/07/17 01:36:47;;;;;;;8.23;4.93;;;;;;;22.17;94.14;99604.44;6225817;28;20042;-74
2021/07/17 01:39:48;;;;;;;9.03;5.53;;;;;;;22.24;93.34;99598.25;6225623;28;20065;-74
2021/07/17 01:42:52;;;;;;;12.50;5.63;;;;;;;22.19;93.71;99600.59;6224480;28;20096;-74
2021/07/17 01:46:00;;;;;;;6.88;5.10;;;;;;;22.20;94.62;99590.81;6224334;28;20511;-74
2021/07/17 01:49:01;;;;;;;10.10;5.57;;;;;;;22.17;93.77;99591.16;6225545;28;20045;-74
2021/07/17 01:52:02;;;;;;;7.88;4.88;;;;;;;22.16;94.25;99594.84;6207995;28;20042;-74
2021/07/17 01:55:06;;;;;;;7.18;5.47;;;;;;;22.22;94.19;99588.81;6225362;28;20072;-74
2021/07/17 01:58:08;;;;;;;9.57;5.40;;;;;;;22.11;94.40;99584.72;6225489;28;20046;-74
2021/07/17 02:01:09;;;;;;;8.25;5.07;;;;;;;22.14;94.39;99584.38;6223952;28;20116;-74
2021/07/17 02:04:10;;;;;;;9.77;5.35;;;;;;;22.17;93.84;99580.53;6223927;28;20045;-74
2021/07/17 02:07:11;;;;;;;7.20;5.33;;;;;;;22.14;93.81;99571.09;6223716;28;20057;-75
2021/07/17 02:10:15;;;;;;;6.37;5.13;;;;;;;22.10;93.76;99562.66;6223801;28;20038;-75
2021/07/17 02:13:16;;;;;;;6.50;5.13;;;;;;;21.99;94.74;99560.44;6224077;28;20481;-75
2021/07/17 02:16:19;;;;;;;5.90;5.30;;;;;;;22.02;94.34;99551.28;6223426;28;20045;-75
2021/07/17 02:19:22;;;;;;;9.48;5.57;;;;;;;22.02;93.80;99549.44;6223607;28;20099;-75
2021/07/17 02:22:23;;;;;;;11.82;5.65;;;;;;;22.01;94.57;99546.97;6223710;28;20057;-75
2021/07/17 02:25:23;;;;;;;7.27;5.40;;;;;;;21.99;94.24;99539.19;6223478;28;20145;-75
2021/07/17 02:28:24;;;;;;;9.97;5.50;;;;;;;21.88;95.17;99547.56;6223468;28;20049;-75
2021/07/17 02:31:25;;;;;;;10.07;5.60;;;;;;;21.91;94.69;99548.06;6223610;28;20061;-75
2021/07/17 02:34:26;;;;;;;8.83;5.47;;;;;;;21.86;94.72;99542.44;6223288;28;20774;-75
2021/07/17 02:37:26;;;;;;;6.50;4.97;;;;;;;21.88;94.73;99551.06;6223279;28;20042;-75
2021/07/17 02:40:27;;;;;;;7.47;5.73;;;;;;;21.79;94.99;99540.69;6223078;28;20049;-75
2021/07/17 02:43:28;;;;;;;7.40;5.23;;;;;;;21.85;94.73;99540.81;6223036;28;20061;-75
2021/07/17 02:46:29;;;;;;;9.73;5.50;;;;;;;21.77;95.27;99540.06;6222946;28;20069;-75
2021/07/17 02:49:31;;;;;;;6.70;5.00;;;;;;;21.77;94.86;99543.53;6223013;28;20042;-75
2021/07/17 02:52:32;;;;;;;7.88;5.25;;;;;;;21.83;95.21;99556.09;6239442;28;20057;-75
2021/07/17 02:55:33;;;;;;;8.77;5.88;;;;;;;21.68;96.05;99556.03;6222863;28;20042;-74
2021/07/17 02:58:34;;;;;;;9.53;5.83;;;;;;;21.65;96.34;99551.06;6224314;28;20049;-74
2021/07/17 03:01:35;;;;;;;9.23;5.67;;;;;;;21.67;95.79;99556.22;6222606;28;20042;-74
2021/07/17 03:04:35;;;;;;;7.90;5.10;;;;;;;21.67;95.93;99561.53;6223882;28;20096;-74
2021/07/17 03:07:36;;;;;;;7.93;5.57;;;;;;;21.69;97.10;99564.81;6222355;28;20050;-74
2021/07/17 03:10:37;;;;;;;8.90;5.30;;;;;;;21.77;95.72;99570.06;6223839;28;20408;-74
2021/07/17 03:13:38;;;;;;;9.80;5.50;;;;;;;21.75;95.29;99574.75;6206079;28;20428;-75
2021/07/17 03:16:39;;;;;;;9.50;5.70;;;;;;;21.72;96.07;99570.63;6222469;28;20064;-75
2021/07/17 03:19:40;;;;;;;11.07;5.70;;;;;;;21.73;95.38;99568.78;6223552;28;20117;-74
2021/07/17 03:22:41;;;;;;;10.02;6.20;;;;;;;21.80;95.15;99579.50;6223386;28;20034;-74
2021/07/17 03:25:42;;;;;;;7.10;5.40;;;;;;;21.74;95.11;99570.41;6222757;28;20042;-74
2021/07/17 03:28:43;;;;;;;8.20;6.10;;;;;;;21.72;94.77;99570.63;6221975;28;20073;-74
2021/07/17 03:31:43;;;;;;;10.13;6.53;;;;;;;21.81;94.32;99565.25;6205806;28;20481;-74
2021/07/17 03:34:44;;;;;;;8.10;5.33;;;;;;;21.84;94.59;99565.69;6223189;28;20125;-74
2021/07/17 03:37:45;;;;;;;11.23;6.43;;;;;;;21.78;94.71;99569.06;6223114;28;20038;-74
2021/07/17 03:40:46;;;;;;;8.30;5.57;;;;;;;21.75;95.19;99566.78;6221835;28;20052;-73
2021/07/17 03:43:47;;;;;;;7.07;5.80;;;;;;;21.80;94.94;99566.22;6222925;28;20041;-73
2021/07/17 03:46:48;;;;;;;11.10;5.60;;;;;;;21.86;94.85;99579.63;6221647;28;20520;-75
2021/07/17 03:49:48;;;;;;;8.93;5.77;;;;;;;21.80;95.08;99566.22;6221660;28;20412;-74
2021/07/17 03:52:49;;;;;;;7.37;5.73;;;;;;;21.82;95.49;99577.50;6222601;28;20076;-74
2021/07/17 03:55:50;;;;;;;7.50;6.27;;;;;;;21.75;96.37;99582.69;6221497;28;20561;-75
2021/07/17 03:58:51;;;;;;;7.23;5.57;;;;;;;21.79;96.63;99573.38;6221389;28;20573;-75
2021/07/17 04:01:52;;;;;;;10.10;5.77;;;;;;;21.85;96.39;99570.00;6221263;28;20042;-74
2021/07/17 04:04:52;;;;;;;10.82;5.70;;;;;;;21.87;95.73;99572.50;6222553;28;20038;-73
2021/07/17 04:07:53;;;;;;;8.33;6.13;;;;;;;21.93;95.42;99569.94;6204915;28;20394;-74
2021/07/17 04:10:54;;;;;;;12.40;6.13;;;;;;;21.96;95.52;99571.41;6222430;28;20042;-74
2021/07/17 04:13:55;;;;;;;11.02;6.03;;;;;;;21.92;96.41;99576.25;6222256;28;20544;-74
2021/07/17 04:16:56;;;;;;;9.10;5.97;;;;;;;22.04;96.13;99571.34;6221108;28;20034;-74
2021/07/17 04:19:57;;;;;;;10.57;6.13;;;;;;;21.98;96.55;99574.72;6204906;28;20034;-73
2021/07/17 04:22:57;;;;;;;10.03;6.37;;;;;;;22.02;96.32;99565.38;6220764;28;20041;-74
2021/07/17 04:25:58;;;;;;;8.63;6.27;;;;;;;22.04;96.41;99567.88;6220941;28;20404;-74
2021/07/17 04:28:59;;;;;;;10.87;6.90;;;;;;;22.01;96.13;99565.56;6204459;28;20481;-73
2021/07/17 04:31:59;;;;;;;9.93;6.07;;;;;;;22.10;96.11;99561.84;6230536;28;20037;-73
2021/07/17 04:35:00;;;;;;;11.03;6.40;;;;;;;22.07;95.90;99563.03;6229077;28;20052;-74
2021/07/17 04:38:01;;;;;;;11.57;6.50;;;;;;;22.07;96.42;99571.00;6228746;28;20041;-74
2021/07/17 04:41:02;;;;;;;10.10;6.40;;;;;;;22.05;96.55;99582.78;6228629;28;20041;-74
2021/07/17 04:44:03;;;;;;;9.80;5.90;;;;;;;22.15;96.63;99578.03;6246173;28;20618;-74
2021/07/17 04:47:04;;;;;;;11.77;6.70;;;;;;;22.04;96.83;99573.19;6245248;28;20037;-74
2021/07/17 04:50:06;;;;;;;11.80;6.20;;;;;;;22.15;96.54;99572.72;6245053;28;20076;-74
2021/07/17 04:53:07;;;;;;;9.48;6.53;;;;;;;22.18;96.76;99571.56;6246068;28;20053;-74
2021/07/17 04:56:07;;;;;;;10.53;6.13;;;;;;;22.19;96.50;99578.53;6212300;28;20045;-74
2021/07/17 04:59:08;;;;;;;17.20;6.40;;;;;;;22.33;95.59;99586.53;6246212;28;20050;-74
2021/07/17 05:02:09;;;;;;;10.70;5.97;;;;;;;22.42;94.68;99579.31;6246025;28;20499;-74
2021/07/17 05:05:10;;;;;;;15.43;5.90;;;;;;;22.38;96.11;99580.66;6228470;28;20041;-74
2021/07/17 05:08:11;;;;;;;9.32;5.53;;;;;;;22.48;95.46;99580.41;6244693;28;20065;-74
2021/07/17 05:11:12;;;;;;;12.80;6.07;;;;;;;22.50;94.88;99589.03;6244840;28;20041;-74
2021/07/17 05:14:12;;;;;;;8.40;6.13;;;;;;;22.63;92.13;99585.72;6244718;28;20556;-74
2021/07/17 05:17:13;;;;;;;8.90;6.00;;;;;;;22.74;91.44;99587.94;6244696;28;20115;-73
2021/07/17 05:20:15;;;;;;;10.90;5.70;;;;;;;22.66;94.46;99588.03;6241623;28;20456;-74
2021/07/17 05:23:18;;;;;;;9.43;6.13;;;;;;;22.72;94.16;99584.66;6228721;28;20057;-74
2021/07/17 05:26:19;;;;;;;14.30;6.00;;;;;;;22.77;91.75;99584.91;6204306;28;20069;-74
2021/07/17 05:29:20;;;;;;;11.57;5.33;;;;;;;22.73;93.50;99591.59;6220156;28;20038;-75
2021/07/17 05:32:20;;;;;;;12.17;5.80;;;;;;;22.80;91.89;99591.72;6220509;28;20040;-75
2021/07/17 05:35:21;;;;;;;10.57;5.93;;;;;;;22.78;93.56;99586.56;6222704;28;20435;-74
2021/07/17 05:38:22;;;;;;;7.32;5.50;;;;;;;22.80;91.44;99584.56;6232090;28;20120;-69
2021/07/17 05:41:23;;;;;;;10.10;6.13;;;;;;;22.77;90.90;99582.25;6220526;28;20145;-70
2021/07/17 05:44:24;;;;;;;10.20;6.57;;;;;;;22.78;92.96;99577.78;6220328;28;20044;-72
2021/07/17 05:47:26;;;;;;;11.63;6.70;;;;;;;22.85;92.66;99582.16;6221656;28;20275;-72
2021/07/17 05:50:27;;;;;;;10.18;6.15;;;;;;;22.89;90.61;99578.13;6223228;28;20523;-72
2021/07/17 05:53:27;;;;;;;10.13;7.00;;;;;;;22.91;91.54;99572.63;6239254;28;20061;-73
2021/07/17 05:56:28;;;;;;;11.83;6.07;;;;;;;22.94;91.34;99574.91;6225272;28;20041;-70
2021/07/17 05:59:29;;;;;;;15.73;6.47;;;;;;;23.00;92.21;99581.31;6243948;28;20045;-70
2021/07/17 06:02:30;;;;;;;8.03;5.90;;;;;;;23.03;92.35;99573.81;6249559;28;20041;-69
2021/07/17 06:05:31;;;;;;;11.13;5.93;;;;;;;23.05;90.03;99569.13;6245717;28;20089;-69
2021/07/17 06:08:32;;;;;;;10.93;6.38;;;;;;;23.17;89.03;99571.34;6233376;28;20085;-68
2021/07/17 06:11:33;;;;;;;10.17;5.73;;;;;;;23.23;89.63;99573.25;6226176;28;20046;-69
2021/07/17 06:14:38;;;;;;;11.07;6.47;;;;;;;23.17;90.94;99574.81;6208502;28;20045;-70
2021/07/17 06:17:39;;;;;;;11.32;6.00;;;;;;;23.22;87.70;99576.91;6226026;28;20129;-70
2021/07/17 06:20:40;;;;;;;12.70;5.30;;;;;;;23.31;86.33;99575.78;6226055;28;20168;-70
2021/07/17 06:23:41;;;;;;;9.90;6.00;;;;;;;23.33;87.00;99579.91;6224440;28;20037;-70
2021/07/17 06:26:41;;;;;;;11.07;5.90;;;;;;;23.32;87.56;99585.41;6208276;28;20049;-72
2021/07/17 06:29:42;;;;;;;10.83;6.00;;;;;;;23.37;88.78;99580.38;6244804;28;20042;-71
2021/07/17 06:32:43;;;;;;;14.10;5.88;;;;;;;23.36;87.86;99588.53;6249968;28;20124;-71
2021/07/17 06:35:44;;;;;;;10.67;6.23;;;;;;;23.41;87.89;99586.13;6249730;28;20072;-67
2021/07/17 06:38:45;;;;;;;73.70;10.17;;;;;;;23.46;86.71;99584.53;6249999;28;20060;-71
2021/07/17 06:41:46;;;;;;;40.63;8.38;;;;;;;23.52;88.25;99589.13;6249818;28;20380;-67
2021/07/17 06:44:46;;;;;;;14.27;6.23;;;;;;;23.59;88.11;99591.84;6248556;28;20041;-69
2021/07/17 06:47:48;;;;;;;11.63;5.70;;;;;;;23.66;91.57;99594.56;6248677;28;20044;-70
2021/07/17 06:50:49;;;;;;;9.45;6.05;;;;;;;23.63;97.48;99598.44;6232013;28;20050;-71
2021/07/17 06:53:49;;;;;;;11.67;5.60;;;;;;;23.68;93.42;99597.84;6249775;28;20439;-67
2021/07/17 06:56:50;;;;;;;11.60;6.50;;;;;;;23.57;88.70;99598.38;6231765;28;20063;-68
2021/07/17 06:59:51;;;;;;;10.83;5.70;;;;;;;23.66;87.47;99605.22;6215650;28;20128;-67
2021/07/17 07:02:52;;;;;;;10.87;5.90;;;;;;;23.81;85.28;99595.38;6246967;28;20052;-67
2021/07/17 07:05:53;;;;;;;14.63;6.40;;;;;;;23.87;83.69;99605.25;6248207;28;20045;-68
2021/07/17 07:08:54;;;;;;;10.65;6.10;;;;;;;23.93;90.09;99601.84;6247769;28;20053;-69
2021/07/17 07:11:55;;;;;;;12.50;6.20;;;;;;;24.01;88.71;99592.91;6249145;28;20076;-68
2021/07/17 07:14:56;;;;;;;11.20;5.80;;;;;;;24.19;86.47;99592.41;6247964;28;20523;-67
2021/07/17 07:17:57;;;;;;;10.37;5.90;;;;;;;24.20;84.74;99591.41;6247946;28;20045;-66
2021/07/17 07:20:57;;;;;;;10.95;5.88;;;;;;;24.27;83.19;99592.25;6249115;28;20072;-67
2021/07/17 07:23:58;;;;;;;7.68;5.85;;;;;;;24.23;83.58;99599.00;6248685;28;20068;-64
2021/07/17 07:26:59;;;;;;;8.60;5.50;;;;;;;24.32;81.67;99602.38;6247722;28;20065;-67
2021/07/17 07:30:00;;;;;;;12.87;5.97;;;;;;;24.29;85.06;99605.41;6231065;28;20049;-66
2021/07/17 07:33:01;;;;;;;12.93;6.25;;;;;;;24.31;86.18;99600.69;6248652;28;20052;-67
2021/07/17 07:36:02;;;;;;;12.13;6.13;;;;;;;24.29;84.98;99606.22;6248640;28;20041;-67
2021/07/17 07:39:03;;;;;;;11.00;6.03;;;;;;;24.42;82.77;99602.84;6248451;28;20487;-66
2021/07/17 07:42:04;;;;;;;10.00;6.00;;;;;;;24.55;83.07;99606.66;6247290;28;20045;-66
2021/07/17 07:45:06;;;;;;;8.73;5.83;;;;;;;24.60;81.90;99609.53;6248351;28;20527;-66
2021/07/17 07:48:07;;;;;;;14.98;5.93;;;;;;;24.71;82.66;99607.16;6248248;28;20041;-66
2021/07/17 07:51:09;;;;;;;11.48;5.70;;;;;;;24.83;84.85;99612.78;6246800;28;20095;-67
2021/07/17 07:54:10;;;;;;;11.65;6.13;;;;;;;24.93;79.92;99623.91;6229720;28;20045;-66
2021/07/17 07:57:10;;;;;;;12.23;6.00;;;;;;;25.02;76.74;99618.38;6247671;28;20052;-65
2021/07/17 08:00:14;;;;;;;9.85;6.38;;;;;;;25.06;79.36;99614.28;6246976;28;20046;-70
2021/07/17 08:03:14;;;;;;;11.80;5.85;;;;;;;25.11;78.92;99627.88;6246611;28;20073;-73
2021/07/17 08:06:16;;;;;;;12.73;5.65;;;;;;;25.26;82.58;99628.56;6246524;28;20038;-67
2021/07/17 08:09:17;;;;;;;10.30;5.50;;;;;;;25.29;78.32;99624.72;6230294;28;20065;-66
2021/07/17 08:12:18;;;;;;;10.88;5.72;;;;;;;25.38;78.79;99618.16;6229971;28;20046;-70
2021/07/17 08:15:19;;;;;;;11.02;5.95;;;;;;;25.32;77.49;99622.44;6247771;28;20494;-66
2021/07/17 08:18:20;;;;;;;9.88;6.13;;;;;;;25.31;81.62;99625.34;6246235;28;20037;-66
2021/07/17 08:21:22;;;;;;;12.18;5.50;;;;;;;25.41;78.01;99620.44;6246606;28;20453;-77
2021/07/17 08:24:23;;;;;;;9.95;5.57;;;;;;;25.57;80.89;99635.25;6241145;28;20052;-67
2021/07/17 08:27:23;;;;;;;12.18;5.95;;;;;;;25.61;80.63;99616.97;6248103;28;20041;-79
2021/07/17 08:30:24;;;;;;;10.45;6.22;;;;;;;25.64;79.72;99616.59;6224721;28;20392;-74
2021/07/17 08:33:30;;;;;;;10.25;5.50;;;;;;;25.68;80.70;99615.16;6238165;28;20060;-69
2021/07/17 08:36:30;;;;;;;10.98;5.88;;;;;;;25.72;79.83;99619.88;6249341;28;20045;-67
2021/07/17 08:39:31;;;;;;;8.27;6.03;;;;;;;25.79;76.83;99614.53;6245821;28;20100;-72
2021/07/17 08:42:35;;;;;;;11.73;6.00;;;;;;;25.85;77.59;99611.06;6237512;28;20679;-71
2021/07/17 08:45:37;;;;;;;13.45;6.03;;;;;;;25.65;78.56;99607.53;6245177;28;20275;-74
2021/07/17 08:48:37;;;;;;;10.50;5.72;;;;;;;25.72;75.59;99606.53;6228130;28;20557;-72
2021/07/17 08:51:39;;;;;;;11.53;6.07;;;;;;;25.72;80.86;99608.38;6228739;28;20053;-74
2021/07/17 08:54:42;;;;;;;10.07;5.22;;;;;;;25.80;79.56;99602.84;6232763;28;20313;-75
2021/07/17 08:57:43;;;;;;;9.63;6.22;;;;;;;25.90;78.12;99597.97;6233531;28;20396;-73
2021/07/17 09:00:45;;;;;;;10.32;5.93;;;;;;;26.00;80.12;99610.88;6222446;28;20046;-78
2021/07/17 09:03:47;;;;;;;17.52;6.68;;;;;;;26.06;79.37;99609.25;6204532;28;20049;-74
2021/07/17 09:06:48;;;;;;;11.88;6.03;;;;;;;26.13;76.15;99610.09;6229240;28;20042;-71
2021/07/17 09:09:49;;;;;;;8.45;6.47;;;;;;;26.20;80.90;99618.94;6245023;28;20092;-73
2021/07/17 09:13:04;;;;;;;;;;;;;;;26.37;79.07;99613.97;6244334;28;20042;-74
2021/07/17 09:16:12;;;;;;;9.35;6.40;;;;;;;26.42;80.65;99611.50;6242970;28;20376;-72
2021/07/17 09:19:13;;;;;;;18.50;9.55;;;;;;;26.50;75.47;99613.97;6245979;28;20068;-76
2021/07/17 09:22:29;;;;;;;18.27;8.68;;;;;;;26.49;77.15;99601.59;6237640;28;20050;-73
2021/07/17 09:25:37;;;;;;;13.25;7.60;;;;;;;26.62;79.01;99611.47;6238860;28;20041;-76
2021/07/17 09:28:38;;;;;;;11.10;6.25;;;;;;;26.69;72.01;99606.97;6226995;28;20046;-76
2021/07/17 09:31:52;;;;;;;15.45;7.13;;;;;;;26.81;74.90;99607.13;6235984;28;20124;-76
2021/07/17 09:34:53;;;;;;;10.90;5.90;;;;;;;26.86;75.10;99607.31;6250206;28;20056;-71
2021/07/17 09:37:55;;;;;;;15.15;6.03;;;;;;;26.98;74.46;99612.03;6233620;28;20042;-67
2021/07/17 09:40:59;;;;;;;10.02;5.75;;;;;;;27.10;70.84;99608.47;6250187;28;20041;-70
2021/07/17 09:44:03;;;;;;;11.95;5.88;;;;;;;27.09;69.12;99628.22;6250117;28;20053;-71
2021/07/17 09:47:26;;;;;;;24.05;5.97;;;;;;;27.10;70.24;99626.41;6250049;28;20392;-70
2021/07/17 09:50:33;;;;;;;8.95;5.80;;;;;;;27.02;74.50;99613.25;6249496;28;20095;-71
2021/07/17 09:53:43;;;;;;;13.68;6.57;;;;;;;27.14;71.83;99606.19;6250960;28;20588;-70
2021/07/17 09:56:44;;;;;;;12.93;6.55;;;;;;;27.27;76.61;99614.19;6251025;28;20049;-71
2021/07/17 10:00:02;;;;;;;11.15;6.28;;;;;;;27.35;72.58;99613.13;6251226;28;20048;-72
2021/07/17 10:03:17;;;;;;;12.93;6.47;;;;;;;27.26;73.16;99611.72;6250795;28;20117;-73
2021/07/17 10:06:46;;;;;;;9.70;6.15;;;;;;;27.42;71.07;99610.41;6250692;28;20385;-73
2021/07/17 10:09:50;;;;;;;12.43;6.30;;;;;;;27.38;72.40;99615.38;6250881;28;20060;-75
2021/07/17 10:12:58;;;;;;;11.95;6.10;;;;;;;27.35;72.81;99615.00;6251096;28;20041;-74
2021/07/17 10:15:59;;;;;;;13.02;5.93;;;;;;;27.37;72.70;99618.28;6249642;28;20120;-73
2021/07/17 10:18:59;;;;;;;11.85;6.28;;;;;;;27.50;75.40;99624.38;6249666;28;20107;-74
2021/07/17 10:22:01;;;;;;;9.95;6.13;;;;;;;27.61;68.52;99614.81;6233430;28;20037;-73
2021/07/17 10:25:01;;;;;;;;;;;;;;;27.83;75.26;99615.31;6251419;28;20091;-72
2021/07/17 10:28:02;;;;;;;9.17;6.90;;;;;;;27.93;73.40;99602.25;6232956;28;19925;-75
2021/07/17 10:31:05;;;;;;;11.30;5.78;;;;;;;27.94;68.39;99611.13;6249270;28;20508;-72
2021/07/17 10:34:06;;;;;;;10.82;5.78;;;;;;;27.92;67.29;99603.31;6250012;28;20173;-66
2021/07/17 10:37:18;;;;;;;;;;;;;;;27.95;70.91;99609.28;6249349;28;20057;-78
2021/07/17 10:40:22;;;;;;;9.55;5.88;;;;;;;28.00;72.15;99604.06;6242414;28;19950;-76
2021/07/17 10:43:23;;;;;;;12.82;6.40;;;;;;;27.81;72.52;99603.97;6249169;28;20046;-73
2021/07/17 10:46:43;;;;;;;11.70;6.47;;;;;;;27.85;67.16;99601.69;6248724;28;20041;-70
2021/07/17 10:49:48;;;;;;;9.68;5.50;;;;;;;28.17;70.58;99607.03;6257807;28;20046;-69
2021/07/17 10:52:49;;;;;;;14.82;6.10;;;;;;;28.30;65.17;99601.56;6249641;28;20041;-69
2021/07/17 10:55:50;;;;;;;11.60;6.18;;;;;;;28.48;69.07;99603.47;6248290;28;20042;-70
2021/07/17 10:58:50;;;;;;;14.05;6.05;;;;;;;28.58;68.01;99600.28;6231821;28;20404;-71
2021/07/17 11:02:01;;;;;;;11.65;5.93;;;;;;;28.74;64.62;99594.31;6249277;28;20050;-70
2021/07/17 11:05:02;;;;;;;11.70;6.22;;;;;;;28.61;66.41;99594.47;6248868;28;20408;-69
2021/07/17 11:08:03;;;;;;;11.55;5.78;;;;;;;28.84;68.13;99585.75;6247169;28;20053;-69
2021/07/17 11:11:23;;;;;;;10.95;5.65;;;;;;;28.96;64.72;99577.75;6249134;28;20115;-70
2021/07/17 11:14:24;;;;;;;10.15;5.80;;;;;;;29.21;60.85;99583.03;6249294;28;20049;-68
2021/07/17 11:17:42;;;;;;;9.13;5.50;;;;;;;29.28;63.56;99586.44;6215416;28;20423;-71
2021/07/17 11:20:43;;;;;;;11.02;5.57;;;;;;;29.33;64.13;99584.72;6247854;28;20049;-69
2021/07/17 11:23:44;;;;;;;10.82;5.53;;;;;;;29.49;61.87;99583.28;6249125;28;20053;-70
2021/07/17 11:26:45;;;;;;;12.07;5.65;;;;;;;29.46;63.88;99582.91;6247856;28;20037;-70
2021/07/17 11:29:48;;;;;;;12.23;5.63;;;;;;;29.42;59.57;99582.53;6248646;28;20091;-65
2021/07/17 11:33:04;;;;;;;12.13;6.00;;;;;;;29.49;65.15;99580.59;6249029;28;20407;-70
2021/07/17 11:36:24;;;;;;;11.30;5.32;;;;;;;29.79;62.30;99581.63;6248897;28;20124;-70
2021/07/17 11:39:29;;;;;;;7.28;4.88;;;;;;;29.98;56.37;99580.50;6249032;28;20064;-72
2021/07/17 11:42:36;;;;;;;9.82;5.50;;;;;;;30.10;55.57;99569.72;6247853;28;20459;-74
2021/07/17 11:45:38;;;;;;;12.38;5.43;;;;;;;29.92;58.31;99573.34;6248680;28;20099;-72
2021/07/17 11:48:39;;;;;;;10.75;5.07;;;;;;;29.97;54.29;99576.16;6230622;28;20095;-72
2021/07/17 11:51:51;;;;;;;9.57;4.80;;;;;;;30.07;50.27;99564.81;6248787;28;20069;-72
2021/07/17 11:54:54;;;;;;;7.72;4.70;;;;;;;29.68;54.99;99575.94;6245918;28;20055;-73
2021/07/17 11:57:55;;;;;;;12.52;5.20;;;;;;;29.79;51.49;99571.66;6246888;28;20128;-77
2021/07/17 12:01:04;;;;;;;9.38;4.47;;;;;;;30.25;48.46;99566.56;6247377;28;20045;-68
2021/07/17 12:04:05;;;;;;;9.85;5.18;;;;;;;29.75;55.63;99567.81;6248159;28;20041;-67
2021/07/17 12:07:11;;;;;;;8.07;4.70;;;;;;;30.25;55.02;99559.31;6247479;28;20064;-68
2021/07/17 12:10:13;;;;;;;7.47;4.45;;;;;;;30.77;50.03;99555.88;6246077;28;20045;-69
2021/07/17 12:13:19;;;;;;;12.65;4.53;;;;;;;30.55;52.10;99550.28;6248147;28;20455;-67
2021/07/17 12:16:21;;;;;;;10.65;4.00;;;;;;;30.41;47.36;99554.28;6246931;28;20050;-68
2021/07/17 12:19:23;;;;;;;6.65;4.60;;;;;;;31.00;44.94;99546.94;6247595;28;20045;-67
2021/07/17 12:22:24;;;;;;;9.90;4.22;;;;;;;30.75;42.87;99549.09;6246509;28;20488;-70
2021/07/17 12:25:51;;;;;;;;;;;;;;;30.88;44.85;99555.03;6246988;28;20045;-70
2021/07/17 12:28:55;;;;;;;10.23;4.57;;;;;;;31.13;46.61;99549.34;6247130;28;19959;-68
2021/07/17 12:32:01;;;;;;;10.13;4.65;;;;;;;30.40;51.88;99548.09;6247763;28;20044;-70
2021/07/17 12:35:01;;;;;;;10.57;4.57;;;;;;;30.44;53.39;99543.06;6246535;28;20139;-69
2021/07/17 12:38:23;;;;;;;;;;;;;;;31.02;50.22;99535.91;6229471;28;20033;-68
2021/07/17 12:41:26;;;;;;;12.65;4.25;;;;;;;30.92;53.69;99540.03;6244893;28;19924;-66
2021/07/17 12:44:27;;;;;;;14.32;4.22;;;;;;;30.75;51.35;99535.63;6247322;28;20041;-66
2021/07/17 12:47:28;;;;;;;;;;;;;;;30.79;48.86;99545.69;6225921;28;20492;-65
2021/07/17 12:50:28;;;;;;;10.23;4.50;;;;;;;30.74;50.93;99537.50;6232738;28;19928;-67
2021/07/17 12:53:29;;;;;;;;;;;;;;;30.59;49.45;99537.19;6221775;28;20038;-68
2021/07/17 12:56:45;;;;;;;12.60;4.53;;;;;;;29.99;55.13;99535.56;6237903;28;20451;-66
2021/07/17 12:59:46;;;;;;;10.23;4.07;;;;;;;30.08;48.50;99536.84;6224571;28;20042;-66
2021/07/17 13:02:47;;;;;;;10.13;3.50;;;;;;;30.11;49.28;99526.44;6226055;28;20042;-66
2021/07/17 13:05:51;;;;;;;8.07;3.90;;;;;;;30.19;47.42;99519.91;6225694;28;20049;-65
2021/07/17 13:08:57;;;;;;;9.77;3.35;;;;;;;30.27;43.88;99519.53;6226950;28;20081;-67
2021/07/17 13:12:04;;;;;;;9.05;3.95;;;;;;;30.33;44.50;99515.94;6226333;28;20077;-66
2021/07/17 13:15:06;;;;;;;9.23;3.40;;;;;;;30.59;44.46;99511.06;6227453;28;20050;-66
2021/07/17 13:18:20;;;;;;;11.13;3.47;;;;;;;30.68;39.90;99511.50;6227355;28;20421;-64
2021/07/17 13:21:51;;;;;;;7.32;3.08;;;;;;;30.89;38.86;99508.22;6226273;28;20515;-65
2021/07/17 13:24:52;;;;;;;10.23;3.70;;;;;;;30.73;42.46;99504.38;6225737;28;20108;-65
2021/07/17 13:28:08;;;;;;;12.35;3.83;;;;;;;30.58;43.62;99504.06;6225782;28;20045;-65
2021/07/17 13:31:17;;;;;;;13.40;4.20;;;;;;;30.46;44.27;99497.91;6226024;28;20054;-66
2021/07/17 13:34:19;;;;;;;4.90;3.30;;;;;;;30.41;43.51;99501.28;6227209;28;20057;-67
2021/07/17 13:37:20;;;;;;;9.23;3.70;;;;;;;30.47;46.09;99497.66;6248216;28;20387;-65
2021/07/17 13:40:25;;;;;;;;;;;;;;;30.63;45.77;99501.47;6250105;28;20117;-67
2021/07/17 13:43:28;;;;;;;12.52;4.07;;;;;;;30.66;45.02;99486.72;6249456;28;19925;-67
2021/07/17 13:46:29;;;;;;;7.07;4.00;;;;;;;30.76;48.19;99484.22;6230537;28;20124;-66
2021/07/17 13:49:33;;;;;;;14.23;4.22;;;;;;;30.85;45.57;99485.47;6248167;28;20103;-67
2021/07/17 13:52:37;;;;;;;8.30;3.72;;;;;;;31.07;44.10;99482.13;6249408;28;20068;-67
2021/07/17 13:55:38;;;;;;;8.13;3.65;;;;;;;30.86;43.82;99476.31;6246680;28;20048;-66
2021/07/17 13:58:40;;;;;;;6.30;4.00;;;;;;;30.86;49.42;99467.44;6249194;28;20152;-67
2021/07/17 14:01:40;;;;;;;8.68;3.70;;;;;;;30.83;48.95;99476.81;6249000;28;20041;-67
2021/07/17 14:04:41;;;;;;;;;;;;;;;30.85;48.10;99461.25;6231906;28;20046;-67
2021/07/17 14:07:42;;;;;;;10.27;3.45;;;;;;;30.71;47.56;99460.72;6231298;28;19932;-66
2021/07/17 14:10:43;;;;;;;;;;;;;;;30.70;45.78;99455.56;6247572;28;20065;-66
2021/07/17 14:13:45;;;;;;;8.45;3.80;;;;;;;30.53;45.76;99448.25;6247297;28;19925;-66
2021/07/17 14:16:46;;;;;;;;;;;;;;;30.82;46.31;99445.56;6247785;28;20507;-67